sensor_id;sensor_type;location;lat;lon;timestamp;P1;durP1;ratioP1;P2;durP2;ratioP2
68089;SDS011;54880;50.986;6.990;2023-05-10T00:01:03;11.30;;;5.67;;
68089;SDS011;54880;50.986;6.990;2023-05-10T00:03:28;13.93;;;5.50;;
68089;SDS011;54880;50.986;6.990;2023-05-10T00:05:54;12.57;;;5.67;;
68089;SDS011;54880;50.986;6.990;2023-05-10T00:08:19;13.13;;;6.53;;
68089;SDS011;54880;50.986;6.990;2023-05-10T00:10:44;12.02;;;5.57;;
68089;SDS011;54880;50.986;6.990;2023-05-10T00:13:10;11.95;;;5.60;;
68089;SDS011;54880;50.986;6.990;2023-05-10T00:15:35;11.20;;;5.77;;
68089;SDS011;54880;50.986;6.990;2023-05-10T00:18:00;12.97;;;6.13;;
68089;SDS011;54880;50.986;6.990;2023-05-10T00:20:25;13.30;;;6.37;;
68089;SDS011;54880;50.986;6.990;2023-05-10T00:22:51;13.93;;;6.30;;
68089;SDS011;54880;50.986;6.990;2023-05-10T00:25:16;12.57;;;6.87;;
68089;SDS011;54880;50.986;6.990;2023-05-10T00:27:41;10.93;;;6.23;;
68089;SDS011;54880;50.986;6.990;2023-05-10T00:30:07;13.47;;;6.60;;
68089;SDS011;54880;50.986;6.990;2023-05-10T00:32:33;15.88;;;6.65;;
68089;SDS011;54880;50.986;6.990;2023-05-10T00:34:59;13.03;;;6.30;;
68089;SDS011;54880;50.986;6.990;2023-05-10T00:37:25;13.65;;;6.95;;
68089;SDS011;54880;50.986;6.990;2023-05-10T00:39:51;12.80;;;6.60;;
68089;SDS011;54880;50.986;6.990;2023-05-10T00:42:16;12.33;;;6.53;;
68089;SDS011;54880;50.986;6.990;2023-05-10T00:44:41;15.43;;;7.33;;
68089;SDS011;54880;50.986;6.990;2023-05-10T00:47:07;14.13;;;7.50;;
68089;SDS011;54880;50.986;6.990;2023-05-10T00:49:32;14.25;;;7.28;;
68089;SDS011;54880;50.986;6.990;2023-05-10T00:51:58;15.55;;;8.10;;
68089;SDS011;54880;50.986;6.990;2023-05-10T00:54:23;15.37;;;7.83;;
68089;SDS011;54880;50.986;6.990;2023-05-10T00:56:49;16.20;;;7.87;;
68089;SDS011;54880;50.986;6.990;2023-05-10T00:59:15;15.27;;;7.57;;
68089;SDS011;54880;50.986;6.990;2023-05-10T01:01:42;16.92;;;8.65;;
68089;SDS011;54880;50.986;6.990;2023-05-10T01:04:07;19.48;;;8.73;;
68089;SDS011;54880;50.986;6.990;2023-05-10T01:06:34;15.82;;;8.27;;
68089;SDS011;54880;50.986;6.990;2023-05-10T01:09:00;16.73;;;8.70;;
68089;SDS011;54880;50.986;6.990;2023-05-10T01:11:25;16.80;;;8.87;;
68089;SDS011;54880;50.986;6.990;2023-05-10T01:13:52;17.13;;;9.13;;
68089;SDS011;54880;50.986;6.990;2023-05-10T01:16:20;18.15;;;8.77;;
68089;SDS011;54880;50.986;6.990;2023-05-10T01:18:47;19.73;;;9.25;;
68089;SDS011;54880;50.986;6.990;2023-05-10T01:21:33;17.80;;;8.60;;
68089;SDS011;54880;50.986;6.990;2023-05-10T01:34:25;20.70;;;10.18;;
68089;SDS011;54880;50.986;6.990;2023-05-10T01:36:55;18.42;;;8.80;;
68089;SDS011;54880;50.986;6.990;2023-05-10T01:41:54;19.27;;;9.55;;
68089;SDS011;54880;50.986;6.990;2023-05-10T01:44:29;16.50;;;8.70;;
68089;SDS011;54880;50.986;6.990;2023-05-10T01:49:32;16.27;;;8.50;;
68089;SDS011;54880;50.986;6.990;2023-05-10T01:52:11;16.73;;;6.97;;
68089;SDS011;54880;50.986;6.990;2023-05-10T01:54:38;12.13;;;5.65;;
68089;SDS011;54880;50.986;6.990;2023-05-10T01:57:06;10.77;;;4.67;;
68089;SDS011;54880;50.986;6.990;2023-05-10T01:59:34;10.85;;;4.50;;
68089;SDS011;54880;50.986;6.990;2023-05-10T02:02:05;10.48;;;4.18;;
68089;SDS011;54880;50.986;6.990;2023-05-10T02:04:32;13.45;;;4.35;;
68089;SDS011;54880;50.986;6.990;2023-05-10T02:07:00;8.95;;;4.03;;
68089;SDS011;54880;50.986;6.990;2023-05-10T02:09:25;9.87;;;3.20;;
68089;SDS011;54880;50.986;6.990;2023-05-10T02:11:52;10.80;;;3.88;;
68089;SDS011;54880;50.986;6.990;2023-05-10T02:14:18;10.27;;;3.60;;
68089;SDS011;54880;50.986;6.990;2023-05-10T02:16:43;9.38;;;3.70;;
68089;SDS011;54880;50.986;6.990;2023-05-10T02:19:10;9.90;;;3.70;;
68089;SDS011;54880;50.986;6.990;2023-05-10T02:21:37;9.05;;;3.03;;
68089;SDS011;54880;50.986;6.990;2023-05-10T02:24:02;9.30;;;3.43;;
68089;SDS011;54880;50.986;6.990;2023-05-10T02:26:28;9.90;;;3.50;;
68089;SDS011;54880;50.986;6.990;2023-05-10T02:28:54;8.23;;;3.77;;
68089;SDS011;54880;50.986;6.990;2023-05-10T02:31:20;10.82;;;3.90;;
68089;SDS011;54880;50.986;6.990;2023-05-10T02:33:46;9.68;;;3.80;;
68089;SDS011;54880;50.986;6.990;2023-05-10T02:36:12;12.70;;;4.00;;
68089;SDS011;54880;50.986;6.990;2023-05-10T02:38:37;11.18;;;3.83;;
68089;SDS011;54880;50.986;6.990;2023-05-10T02:41:03;10.97;;;3.90;;
68089;SDS011;54880;50.986;6.990;2023-05-10T02:43:29;10.68;;;3.40;;
68089;SDS011;54880;50.986;6.990;2023-05-10T02:45:56;9.38;;;3.65;;
68089;SDS011;54880;50.986;6.990;2023-05-10T02:48:22;10.07;;;3.40;;
68089;SDS011;54880;50.986;6.990;2023-05-10T02:50:47;8.50;;;3.60;;
68089;SDS011;54880;50.986;6.990;2023-05-10T02:53:18;7.45;;;3.05;;
68089;SDS011;54880;50.986;6.990;2023-05-10T02:55:44;8.98;;;3.30;;
68089;SDS011;54880;50.986;6.990;2023-05-10T02:58:12;11.77;;;3.87;;
68089;SDS011;54880;50.986;6.990;2023-05-10T03:00:37;10.15;;;4.05;;
68089;SDS011;54880;50.986;6.990;2023-05-10T03:03:03;10.20;;;4.75;;
68089;SDS011;54880;50.986;6.990;2023-05-10T03:05:28;10.93;;;4.47;;
68089;SDS011;54880;50.986;6.990;2023-05-10T03:07:54;11.65;;;4.93;;
68089;SDS011;54880;50.986;6.990;2023-05-10T03:10:21;12.38;;;5.13;;
68089;SDS011;54880;50.986;6.990;2023-05-10T03:18:12;11.93;;;5.33;;
68089;SDS011;54880;50.986;6.990;2023-05-10T03:20:47;10.25;;;5.18;;
68089;SDS011;54880;50.986;6.990;2023-05-10T03:23:15;12.13;;;5.47;;
68089;SDS011;54880;50.986;6.990;2023-05-10T03:25:42;13.45;;;5.40;;
68089;SDS011;54880;50.986;6.990;2023-05-10T03:28:09;11.70;;;5.72;;
68089;SDS011;54880;50.986;6.990;2023-05-10T03:30:35;11.30;;;6.00;;
68089;SDS011;54880;50.986;6.990;2023-05-10T03:33:04;12.87;;;6.77;;
68089;SDS011;54880;50.986;6.990;2023-05-10T03:35:29;14.73;;;6.20;;
68089;SDS011;54880;50.986;6.990;2023-05-10T03:37:55;13.13;;;5.97;;
68089;SDS011;54880;50.986;6.990;2023-05-10T03:40:20;13.67;;;6.00;;
68089;SDS011;54880;50.986;6.990;2023-05-10T03:42:46;16.60;;;5.88;;
68089;SDS011;54880;50.986;6.990;2023-05-10T03:45:11;13.10;;;6.30;;
68089;SDS011;54880;50.986;6.990;2023-05-10T03:47:36;13.57;;;5.70;;
68089;SDS011;54880;50.986;6.990;2023-05-10T03:50:02;12.07;;;5.80;;
68089;SDS011;54880;50.986;6.990;2023-05-10T03:52:28;14.45;;;6.45;;
68089;SDS011;54880;50.986;6.990;2023-05-10T03:54:54;13.77;;;6.78;;
68089;SDS011;54880;50.986;6.990;2023-05-10T03:57:19;13.60;;;6.63;;
68089;SDS011;54880;50.986;6.990;2023-05-10T03:59:45;13.63;;;6.20;;
68089;SDS011;54880;50.986;6.990;2023-05-10T04:02:10;11.27;;;5.80;;
68089;SDS011;54880;50.986;6.990;2023-05-10T04:04:35;12.67;;;6.33;;
68089;SDS011;54880;50.986;6.990;2023-05-10T04:07:01;14.40;;;5.90;;
68089;SDS011;54880;50.986;6.990;2023-05-10T04:09:26;15.07;;;6.82;;
68089;SDS011;54880;50.986;6.990;2023-05-10T04:11:51;13.02;;;6.35;;
68089;SDS011;54880;50.986;6.990;2023-05-10T04:14:17;15.17;;;7.17;;
68089;SDS011;54880;50.986;6.990;2023-05-10T04:16:42;16.15;;;7.38;;
68089;SDS011;54880;50.986;6.990;2023-05-10T04:19:07;17.47;;;7.50;;
68089;SDS011;54880;50.986;6.990;2023-05-10T04:21:32;15.30;;;7.30;;
68089;SDS011;54880;50.986;6.990;2023-05-10T04:23:58;14.73;;;7.10;;
68089;SDS011;54880;50.986;6.990;2023-05-10T04:26:23;16.17;;;7.77;;
68089;SDS011;54880;50.986;6.990;2023-05-10T04:28:50;17.80;;;7.53;;
68089;SDS011;54880;50.986;6.990;2023-05-10T04:31:15;15.48;;;7.53;;
68089;SDS011;54880;50.986;6.990;2023-05-10T04:33:40;16.23;;;7.20;;
68089;SDS011;54880;50.986;6.990;2023-05-10T04:36:05;16.57;;;7.83;;
68089;SDS011;54880;50.986;6.990;2023-05-10T04:38:31;16.90;;;7.73;;
68089;SDS011;54880;50.986;6.990;2023-05-10T04:41:06;20.93;;;9.43;;
68089;SDS011;54880;50.986;6.990;2023-05-10T04:43:31;18.73;;;9.13;;
68089;SDS011;54880;50.986;6.990;2023-05-10T04:45:56;21.92;;;9.77;;
68089;SDS011;54880;50.986;6.990;2023-05-10T04:48:22;20.50;;;9.87;;
68089;SDS011;54880;50.986;6.990;2023-05-10T04:50:47;17.73;;;9.10;;
68089;SDS011;54880;50.986;6.990;2023-05-10T04:53:12;18.83;;;9.63;;
68089;SDS011;54880;50.986;6.990;2023-05-10T04:55:38;19.27;;;9.83;;
68089;SDS011;54880;50.986;6.990;2023-05-10T04:58:03;19.33;;;10.10;;
68089;SDS011;54880;50.986;6.990;2023-05-10T05:00:28;20.50;;;10.17;;
68089;SDS011;54880;50.986;6.990;2023-05-10T05:02:53;19.73;;;9.87;;
68089;SDS011;54880;50.986;6.990;2023-05-10T05:05:19;21.90;;;10.67;;
68089;SDS011;54880;50.986;6.990;2023-05-10T05:07:44;20.13;;;9.30;;
68089;SDS011;54880;50.986;6.990;2023-05-10T05:10:09;24.13;;;10.87;;
68089;SDS011;54880;50.986;6.990;2023-05-10T05:12:34;24.37;;;10.20;;
68089;SDS011;54880;50.986;6.990;2023-05-10T05:15:00;21.23;;;10.40;;
68089;SDS011;54880;50.986;6.990;2023-05-10T05:17:25;17.13;;;9.85;;
68089;SDS011;54880;50.986;6.990;2023-05-10T05:19:51;21.00;;;10.23;;
68089;SDS011;54880;50.986;6.990;2023-05-10T05:22:16;19.77;;;9.93;;
68089;SDS011;54880;50.986;6.990;2023-05-10T05:24:41;25.57;;;10.47;;
68089;SDS011;54880;50.986;6.990;2023-05-10T05:27:07;18.43;;;9.93;;
68089;SDS011;54880;50.986;6.990;2023-05-10T05:29:32;20.50;;;10.17;;
68089;SDS011;54880;50.986;6.990;2023-05-10T05:31:57;18.03;;;9.27;;
68089;SDS011;54880;50.986;6.990;2023-05-10T05:34:23;19.37;;;10.40;;
68089;SDS011;54880;50.986;6.990;2023-05-10T05:36:49;21.45;;;9.80;;
68089;SDS011;54880;50.986;6.990;2023-05-10T05:39:14;20.17;;;9.00;;
68089;SDS011;54880;50.986;6.990;2023-05-10T05:41:39;19.23;;;9.63;;
68089;SDS011;54880;50.986;6.990;2023-05-10T05:44:05;20.37;;;9.57;;
68089;SDS011;54880;50.986;6.990;2023-05-10T05:46:30;20.67;;;8.80;;
68089;SDS011;54880;50.986;6.990;2023-05-10T05:48:55;22.77;;;8.60;;
68089;SDS011;54880;50.986;6.990;2023-05-10T05:51:20;19.23;;;9.10;;
68089;SDS011;54880;50.986;6.990;2023-05-10T05:53:46;19.58;;;8.50;;
68089;SDS011;54880;50.986;6.990;2023-05-10T05:56:11;18.03;;;8.60;;
68089;SDS011;54880;50.986;6.990;2023-05-10T05:58:36;19.23;;;9.07;;
68089;SDS011;54880;50.986;6.990;2023-05-10T06:01:01;19.70;;;9.37;;
68089;SDS011;54880;50.986;6.990;2023-05-10T06:03:27;19.70;;;8.67;;
68089;SDS011;54880;50.986;6.990;2023-05-10T06:05:52;17.67;;;8.63;;
68089;SDS011;54880;50.986;6.990;2023-05-10T06:08:17;17.23;;;9.13;;
68089;SDS011;54880;50.986;6.990;2023-05-10T06:10:42;19.43;;;8.70;;
68089;SDS011;54880;50.986;6.990;2023-05-10T06:13:08;20.13;;;8.40;;
68089;SDS011;54880;50.986;6.990;2023-05-10T06:15:33;17.73;;;7.50;;
68089;SDS011;54880;50.986;6.990;2023-05-10T06:17:58;20.53;;;9.63;;
68089;SDS011;54880;50.986;6.990;2023-05-10T06:20:23;19.37;;;9.10;;
68089;SDS011;54880;50.986;6.990;2023-05-10T06:22:49;18.50;;;8.93;;
68089;SDS011;54880;50.986;6.990;2023-05-10T06:25:14;20.00;;;7.93;;
68089;SDS011;54880;50.986;6.990;2023-05-10T06:27:39;17.57;;;7.33;;
68089;SDS011;54880;50.986;6.990;2023-05-10T06:30:05;18.87;;;7.93;;
68089;SDS011;54880;50.986;6.990;2023-05-10T06:32:30;17.25;;;8.48;;
68089;SDS011;54880;50.986;6.990;2023-05-10T06:34:56;19.17;;;8.43;;
68089;SDS011;54880;50.986;6.990;2023-05-10T06:37:21;20.40;;;8.57;;
68089;SDS011;54880;50.986;6.990;2023-05-10T06:39:46;19.77;;;8.20;;
68089;SDS011;54880;50.986;6.990;2023-05-10T06:42:11;17.43;;;7.93;;
68089;SDS011;54880;50.986;6.990;2023-05-10T06:44:37;22.43;;;8.10;;
68089;SDS011;54880;50.986;6.990;2023-05-10T06:47:02;18.83;;;8.00;;
68089;SDS011;54880;50.986;6.990;2023-05-10T06:49:27;20.33;;;8.10;;
68089;SDS011;54880;50.986;6.990;2023-05-10T06:51:52;21.77;;;8.70;;
68089;SDS011;54880;50.986;6.990;2023-05-10T06:54:18;22.90;;;9.73;;
68089;SDS011;54880;50.986;6.990;2023-05-10T06:56:43;20.33;;;8.87;;
68089;SDS011;54880;50.986;6.990;2023-05-10T06:59:08;20.17;;;9.20;;
68089;SDS011;54880;50.986;6.990;2023-05-10T07:01:34;21.00;;;8.97;;
68089;SDS011;54880;50.986;6.990;2023-05-10T07:03:59;19.20;;;8.53;;
68089;SDS011;54880;50.986;6.990;2023-05-10T07:06:24;21.40;;;9.23;;
68089;SDS011;54880;50.986;6.990;2023-05-10T07:08:50;22.40;;;9.70;;
68089;SDS011;54880;50.986;6.990;2023-05-10T07:11:15;23.33;;;9.25;;
68089;SDS011;54880;50.986;6.990;2023-05-10T07:13:40;19.90;;;9.20;;
68089;SDS011;54880;50.986;6.990;2023-05-10T07:16:09;22.45;;;10.02;;
68089;SDS011;54880;50.986;6.990;2023-05-10T07:18:35;23.70;;;10.10;;
68089;SDS011;54880;50.986;6.990;2023-05-10T07:21:00;24.87;;;10.50;;
68089;SDS011;54880;50.986;6.990;2023-05-10T07:23:25;22.27;;;10.37;;
68089;SDS011;54880;50.986;6.990;2023-05-10T07:25:51;21.97;;;10.37;;
68089;SDS011;54880;50.986;6.990;2023-05-10T07:28:17;21.38;;;9.90;;
68089;SDS011;54880;50.986;6.990;2023-05-10T07:30:42;25.70;;;11.27;;
68089;SDS011;54880;50.986;6.990;2023-05-10T07:33:08;22.15;;;10.60;;
68089;SDS011;54880;50.986;6.990;2023-05-10T07:35:34;24.23;;;10.50;;
68089;SDS011;54880;50.986;6.990;2023-05-10T07:37:59;21.93;;;10.13;;
68089;SDS011;54880;50.986;6.990;2023-05-10T07:40:25;20.20;;;9.60;;
68089;SDS011;54880;50.986;6.990;2023-05-10T07:42:50;25.53;;;9.53;;
68089;SDS011;54880;50.986;6.990;2023-05-10T07:45:15;24.70;;;10.53;;
68089;SDS011;54880;50.986;6.990;2023-05-10T07:47:40;23.23;;;10.43;;
68089;SDS011;54880;50.986;6.990;2023-05-10T07:50:06;20.87;;;10.30;;
68089;SDS011;54880;50.986;6.990;2023-05-10T07:52:31;21.77;;;9.87;;
68089;SDS011;54880;50.986;6.990;2023-05-10T07:54:57;18.47;;;9.53;;
68089;SDS011;54880;50.986;6.990;2023-05-10T07:57:22;20.85;;;8.73;;
68089;SDS011;54880;50.986;6.990;2023-05-10T07:59:47;20.52;;;9.75;;
68089;SDS011;54880;50.986;6.990;2023-05-10T08:02:12;20.20;;;9.10;;
68089;SDS011;54880;50.986;6.990;2023-05-10T08:04:38;18.93;;;8.63;;
68089;SDS011;54880;50.986;6.990;2023-05-10T08:07:03;21.77;;;9.00;;
68089;SDS011;54880;50.986;6.990;2023-05-10T08:09:28;27.67;;;9.40;;
68089;SDS011;54880;50.986;6.990;2023-05-10T08:11:53;17.73;;;7.60;;
68089;SDS011;54880;50.986;6.990;2023-05-10T08:14:19;18.80;;;9.40;;
68089;SDS011;54880;50.986;6.990;2023-05-10T08:16:44;17.07;;;7.97;;
68089;SDS011;54880;50.986;6.990;2023-05-10T08:19:09;18.53;;;7.83;;
68089;SDS011;54880;50.986;6.990;2023-05-10T08:21:35;17.60;;;7.77;;
68089;SDS011;54880;50.986;6.990;2023-05-10T08:24:01;15.30;;;6.70;;
68089;SDS011;54880;50.986;6.990;2023-05-10T08:26:26;17.27;;;7.17;;
68089;SDS011;54880;50.986;6.990;2023-05-10T08:28:51;14.33;;;6.47;;
68089;SDS011;54880;50.986;6.990;2023-05-10T08:31:17;13.70;;;5.90;;
68089;SDS011;54880;50.986;6.990;2023-05-10T08:33:43;13.55;;;6.50;;
68089;SDS011;54880;50.986;6.990;2023-05-10T08:36:08;11.90;;;5.80;;
68089;SDS011;54880;50.986;6.990;2023-05-10T08:38:33;11.90;;;5.70;;
68089;SDS011;54880;50.986;6.990;2023-05-10T08:40:59;11.63;;;6.00;;
68089;SDS011;54880;50.986;6.990;2023-05-10T08:43:29;12.25;;;6.35;;
68089;SDS011;54880;50.986;6.990;2023-05-10T08:45:55;17.75;;;7.20;;
68089;SDS011;54880;50.986;6.990;2023-05-10T08:48:22;12.47;;;6.57;;
68089;SDS011;54880;50.986;6.990;2023-05-10T08:50:47;14.35;;;6.85;;
68089;SDS011;54880;50.986;6.990;2023-05-10T08:53:13;18.33;;;7.90;;
68089;SDS011;54880;50.986;6.990;2023-05-10T08:55:40;19.92;;;8.15;;
68089;SDS011;54880;50.986;6.990;2023-05-10T08:58:07;17.53;;;7.83;;
68089;SDS011;54880;50.986;6.990;2023-05-10T09:00:32;18.70;;;8.00;;
68089;SDS011;54880;50.986;6.990;2023-05-10T09:02:58;18.00;;;8.93;;
68089;SDS011;54880;50.986;6.990;2023-05-10T09:05:23;19.60;;;8.43;;
68089;SDS011;54880;50.986;6.990;2023-05-10T09:07:49;20.47;;;9.47;;
68089;SDS011;54880;50.986;6.990;2023-05-10T09:10:14;17.00;;;8.57;;
68089;SDS011;54880;50.986;6.990;2023-05-10T09:12:40;21.23;;;8.60;;
68089;SDS011;54880;50.986;6.990;2023-05-10T09:15:05;19.57;;;8.90;;
68089;SDS011;54880;50.986;6.990;2023-05-10T09:17:32;22.98;;;9.63;;
68089;SDS011;54880;50.986;6.990;2023-05-10T09:19:58;22.23;;;9.67;;
68089;SDS011;54880;50.986;6.990;2023-05-10T09:22:23;20.48;;;9.18;;
68089;SDS011;54880;50.986;6.990;2023-05-10T09:25:02;21.33;;;9.63;;
68089;SDS011;54880;50.986;6.990;2023-05-10T09:27:28;23.10;;;9.70;;
68089;SDS011;54880;50.986;6.990;2023-05-10T09:29:53;26.77;;;9.63;;
68089;SDS011;54880;50.986;6.990;2023-05-10T09:32:20;25.48;;;10.80;;
68089;SDS011;54880;50.986;6.990;2023-05-10T09:34:45;27.20;;;10.40;;
68089;SDS011;54880;50.986;6.990;2023-05-10T09:37:10;27.33;;;11.57;;
68089;SDS011;54880;50.986;6.990;2023-05-10T09:39:36;25.87;;;11.47;;
68089;SDS011;54880;50.986;6.990;2023-05-10T09:42:03;23.75;;;10.25;;
68089;SDS011;54880;50.986;6.990;2023-05-10T09:44:29;26.00;;;10.73;;
68089;SDS011;54880;50.986;6.990;2023-05-10T09:46:54;27.87;;;12.10;;
68089;SDS011;54880;50.986;6.990;2023-05-10T09:49:20;26.90;;;11.43;;
68089;SDS011;54880;50.986;6.990;2023-05-10T09:51:45;25.75;;;10.68;;
68089;SDS011;54880;50.986;6.990;2023-05-10T09:54:12;26.93;;;11.87;;
68089;SDS011;54880;50.986;6.990;2023-05-10T09:56:37;26.65;;;12.07;;
68089;SDS011;54880;50.986;6.990;2023-05-10T09:59:05;27.13;;;12.13;;
68089;SDS011;54880;50.986;6.990;2023-05-10T10:01:30;27.03;;;11.73;;
68089;SDS011;54880;50.986;6.990;2023-05-10T10:03:56;21.75;;;10.43;;
68089;SDS011;54880;50.986;6.990;2023-05-10T10:06:23;21.02;;;10.13;;
68089;SDS011;54880;50.986;6.990;2023-05-10T10:08:48;23.33;;;9.70;;
68089;SDS011;54880;50.986;6.990;2023-05-10T10:11:13;21.52;;;10.00;;
68089;SDS011;54880;50.986;6.990;2023-05-10T10:13:39;17.90;;;8.57;;
68089;SDS011;54880;50.986;6.990;2023-05-10T10:16:04;18.33;;;8.43;;
68089;SDS011;54880;50.986;6.990;2023-05-10T10:18:30;18.40;;;8.07;;
68089;SDS011;54880;50.986;6.990;2023-05-10T10:20:56;18.10;;;7.82;;
68089;SDS011;54880;50.986;6.990;2023-05-10T10:23:21;16.03;;;7.83;;
68089;SDS011;54880;50.986;6.990;2023-05-10T10:25:46;17.27;;;8.27;;
68089;SDS011;54880;50.986;6.990;2023-05-10T10:28:24;15.70;;;7.88;;
68089;SDS011;54880;50.986;6.990;2023-05-10T10:30:51;17.63;;;9.00;;
68089;SDS011;54880;50.986;6.990;2023-05-10T10:33:25;16.37;;;7.50;;
68089;SDS011;54880;50.986;6.990;2023-05-10T10:35:53;14.45;;;8.18;;
68089;SDS011;54880;50.986;6.990;2023-05-10T10:38:19;15.35;;;7.68;;
68089;SDS011;54880;50.986;6.990;2023-05-10T10:40:45;15.38;;;7.20;;
68089;SDS011;54880;50.986;6.990;2023-05-10T10:43:23;16.80;;;7.33;;
68089;SDS011;54880;50.986;6.990;2023-05-10T10:46:11;15.93;;;7.65;;
68089;SDS011;54880;50.986;6.990;2023-05-10T10:48:34;15.53;;;7.43;;
68089;SDS011;54880;50.986;6.990;2023-05-10T10:51:00;18.77;;;8.50;;
68089;SDS011;54880;50.986;6.990;2023-05-10T10:53:26;17.57;;;6.90;;
68089;SDS011;54880;50.986;6.990;2023-05-10T10:56:01;15.40;;;7.10;;
68089;SDS011;54880;50.986;6.990;2023-05-10T10:58:30;15.63;;;6.22;;
68089;SDS011;54880;50.986;6.990;2023-05-10T11:01:10;11.73;;;6.20;;
68089;SDS011;54880;50.986;6.990;2023-05-10T11:03:35;13.07;;;6.37;;
68089;SDS011;54880;50.986;6.990;2023-05-10T11:06:00;13.40;;;5.78;;
68089;SDS011;54880;50.986;6.990;2023-05-10T11:08:33;15.60;;;6.70;;
68089;SDS011;54880;50.986;6.990;2023-05-10T11:15:55;14.05;;;5.38;;
68089;SDS011;54880;50.986;6.990;2023-05-10T11:18:28;11.93;;;5.68;;
68089;SDS011;54880;50.986;6.990;2023-05-10T11:20:58;11.55;;;5.22;;
68089;SDS011;54880;50.986;6.990;2023-05-10T11:23:29;11.10;;;5.47;;
68089;SDS011;54880;50.986;6.990;2023-05-10T11:25:55;13.05;;;5.65;;
68089;SDS011;54880;50.986;6.990;2023-05-10T11:28:20;12.63;;;4.97;;
68089;SDS011;54880;50.986;6.990;2023-05-10T11:30:46;12.75;;;5.30;;
68089;SDS011;54880;50.986;6.990;2023-05-10T11:33:15;11.13;;;4.77;;
68089;SDS011;54880;50.986;6.990;2023-05-10T11:35:41;11.77;;;5.18;;
68089;SDS011;54880;50.986;6.990;2023-05-10T11:38:07;10.57;;;4.77;;
68089;SDS011;54880;50.986;6.990;2023-05-10T11:40:32;10.57;;;4.57;;
68089;SDS011;54880;50.986;6.990;2023-05-10T11:42:57;9.20;;;4.43;;
68089;SDS011;54880;50.986;6.990;2023-05-10T11:45:25;10.47;;;4.83;;
68089;SDS011;54880;50.986;6.990;2023-05-10T11:47:51;11.40;;;4.60;;
68089;SDS011;54880;50.986;6.990;2023-05-10T11:50:17;9.47;;;4.37;;
68089;SDS011;54880;50.986;6.990;2023-05-10T11:52:42;8.03;;;3.90;;
68089;SDS011;54880;50.986;6.990;2023-05-10T11:55:07;8.60;;;4.23;;
68089;SDS011;54880;50.986;6.990;2023-05-10T11:57:32;8.23;;;3.40;;
68089;SDS011;54880;50.986;6.990;2023-05-10T11:59:58;9.43;;;3.75;;
68089;SDS011;54880;50.986;6.990;2023-05-10T12:02:23;8.03;;;3.30;;
68089;SDS011;54880;50.986;6.990;2023-05-10T12:04:49;6.87;;;3.07;;
68089;SDS011;54880;50.986;6.990;2023-05-10T12:07:14;7.00;;;2.63;;
68089;SDS011;54880;50.986;6.990;2023-05-10T12:09:43;6.90;;;2.55;;
68089;SDS011;54880;50.986;6.990;2023-05-10T12:12:09;6.03;;;2.27;;
68089;SDS011;54880;50.986;6.990;2023-05-10T12:14:35;5.88;;;1.83;;
68089;SDS011;54880;50.986;6.990;2023-05-10T12:17:00;5.90;;;2.00;;
68089;SDS011;54880;50.986;6.990;2023-05-10T12:19:25;7.83;;;2.40;;
68089;SDS011;54880;50.986;6.990;2023-05-10T12:21:51;7.83;;;2.50;;
68089;SDS011;54880;50.986;6.990;2023-05-10T12:24:16;6.13;;;2.30;;
68089;SDS011;54880;50.986;6.990;2023-05-10T12:26:42;6.57;;;2.95;;
68089;SDS011;54880;50.986;6.990;2023-05-10T12:29:14;8.33;;;2.40;;
68089;SDS011;54880;50.986;6.990;2023-05-10T12:31:56;6.75;;;2.60;;
68089;SDS011;54880;50.986;6.990;2023-05-10T12:34:32;6.32;;;2.78;;
68089;SDS011;54880;50.986;6.990;2023-05-10T12:36:58;6.80;;;2.50;;
68089;SDS011;54880;50.986;6.990;2023-05-10T12:39:24;6.63;;;3.10;;
68089;SDS011;54880;50.986;6.990;2023-05-10T12:41:49;6.70;;;2.70;;
68089;SDS011;54880;50.986;6.990;2023-05-10T12:44:14;6.70;;;2.53;;
68089;SDS011;54880;50.986;6.990;2023-05-10T12:46:40;6.37;;;2.60;;
68089;SDS011;54880;50.986;6.990;2023-05-10T12:49:05;7.07;;;2.50;;
68089;SDS011;54880;50.986;6.990;2023-05-10T12:51:30;5.43;;;2.20;;
68089;SDS011;54880;50.986;6.990;2023-05-10T12:53:56;7.95;;;2.50;;
68089;SDS011;54880;50.986;6.990;2023-05-10T12:56:21;7.27;;;2.10;;
68089;SDS011;54880;50.986;6.990;2023-05-10T12:58:46;5.43;;;2.00;;
68089;SDS011;54880;50.986;6.990;2023-05-10T13:01:13;5.50;;;2.00;;
68089;SDS011;54880;50.986;6.990;2023-05-10T13:03:38;5.80;;;2.20;;
68089;SDS011;54880;50.986;6.990;2023-05-10T13:06:03;5.87;;;2.20;;
68089;SDS011;54880;50.986;6.990;2023-05-10T13:08:29;5.40;;;2.20;;
68089;SDS011;54880;50.986;6.990;2023-05-10T13:10:58;5.45;;;2.00;;
68089;SDS011;54880;50.986;6.990;2023-05-10T13:13:23;6.00;;;1.90;;
68089;SDS011;54880;50.986;6.990;2023-05-10T13:15:48;5.90;;;1.97;;
68089;SDS011;54880;50.986;6.990;2023-05-10T13:18:14;5.87;;;2.27;;
68089;SDS011;54880;50.986;6.990;2023-05-10T13:20:39;5.90;;;2.17;;
68089;SDS011;54880;50.986;6.990;2023-05-10T13:23:04;7.23;;;1.90;;
68089;SDS011;54880;50.986;6.990;2023-05-10T13:25:30;6.10;;;2.20;;
68089;SDS011;54880;50.986;6.990;2023-05-10T13:27:55;5.78;;;2.40;;
68089;SDS011;54880;50.986;6.990;2023-05-10T13:30:20;5.17;;;2.13;;
68089;SDS011;54880;50.986;6.990;2023-05-10T13:32:46;5.80;;;2.17;;
68089;SDS011;54880;50.986;6.990;2023-05-10T13:35:11;7.17;;;2.00;;
68089;SDS011;54880;50.986;6.990;2023-05-10T13:37:36;5.77;;;1.73;;
68089;SDS011;54880;50.986;6.990;2023-05-10T13:40:02;5.50;;;1.73;;
68089;SDS011;54880;50.986;6.990;2023-05-10T13:42:29;5.10;;;1.70;;
68089;SDS011;54880;50.986;6.990;2023-05-10T13:44:54;5.43;;;1.80;;
68089;SDS011;54880;50.986;6.990;2023-05-10T13:47:19;4.80;;;1.60;;
68089;SDS011;54880;50.986;6.990;2023-05-10T13:49:46;7.43;;;1.83;;
68089;SDS011;54880;50.986;6.990;2023-05-10T13:52:12;5.23;;;1.53;;
68089;SDS011;54880;50.986;6.990;2023-05-10T13:54:37;5.53;;;2.03;;
68089;SDS011;54880;50.986;6.990;2023-05-10T13:57:03;5.10;;;1.60;;
68089;SDS011;54880;50.986;6.990;2023-05-10T13:59:29;4.40;;;1.40;;
68089;SDS011;54880;50.986;6.990;2023-05-10T14:01:56;4.17;;;1.37;;
68089;SDS011;54880;50.986;6.990;2023-05-10T14:04:21;5.82;;;1.45;;
68089;SDS011;54880;50.986;6.990;2023-05-10T14:06:47;7.22;;;1.70;;
68089;SDS011;54880;50.986;6.990;2023-05-10T14:09:12;4.47;;;1.75;;
68089;SDS011;54880;50.986;6.990;2023-05-10T14:11:37;4.75;;;1.77;;
68089;SDS011;54880;50.986;6.990;2023-05-10T14:14:06;6.17;;;1.70;;
68089;SDS011;54880;50.986;6.990;2023-05-10T14:16:32;6.50;;;2.55;;
68089;SDS011;54880;50.986;6.990;2023-05-10T14:18:57;7.80;;;1.80;;
68089;SDS011;54880;50.986;6.990;2023-05-10T14:21:23;6.00;;;1.80;;
68089;SDS011;54880;50.986;6.990;2023-05-10T14:23:48;5.80;;;1.77;;
68089;SDS011;54880;50.986;6.990;2023-05-10T14:26:13;5.43;;;1.60;;
68089;SDS011;54880;50.986;6.990;2023-05-10T14:28:38;5.73;;;1.90;;
68089;SDS011;54880;50.986;6.990;2023-05-10T14:31:04;6.00;;;1.90;;
68089;SDS011;54880;50.986;6.990;2023-05-10T14:33:30;5.57;;;1.80;;
68089;SDS011;54880;50.986;6.990;2023-05-10T14:35:55;5.90;;;1.50;;
68089;SDS011;54880;50.986;6.990;2023-05-10T14:38:22;7.63;;;1.75;;
68089;SDS011;54880;50.986;6.990;2023-05-10T14:40:47;6.10;;;1.80;;
68089;SDS011;54880;50.986;6.990;2023-05-10T14:43:12;5.53;;;1.70;;
68089;SDS011;54880;50.986;6.990;2023-05-10T14:45:38;5.97;;;2.10;;
68089;SDS011;54880;50.986;6.990;2023-05-10T14:48:03;5.27;;;1.90;;
68089;SDS011;54880;50.986;6.990;2023-05-10T14:50:29;5.63;;;1.60;;
68089;SDS011;54880;50.986;6.990;2023-05-10T14:52:55;5.03;;;1.57;;
68089;SDS011;54880;50.986;6.990;2023-05-10T14:55:20;5.37;;;1.90;;